Time;durP1;ratioP1;P1;durP2;ratioP2;P2;SDS_P1;SDS_P2;PMS_P1;PMS_P2;Temp;Humidity;BMP_temperature;BMP_pressure;BME280_temperature;BME280_humidity;BME280_pressure;Samples;Min_cycle;Max_cycle;Signal;HPM_P1;HPM_P2
2023/10/24 00:01:02;;;;;;;;;;;12.10;99.90;;;;;;4999422;28;20149;-67
2023/10/24 00:03:28;;;;;;;;;;;12.10;99.90;;;;;;4999559;28;20009;-67
2023/10/24 00:05:53;;;;;;;;;;;12.20;99.90;;;;;;4999905;28;19925;-67
2023/10/24 00:08:19;;;;;;;;;;;12.20;99.90;;;;;;4999933;28;19933;-67
2023/10/24 00:10:44;;;;;;;;;;;12.20;99.90;;;;;;5000832;28;19989;-67
2023/10/24 00:13:10;;;;;;;;;;;12.20;99.90;;;;;;5000624;28;19910;-67
2023/10/24 00:15:35;;;;;;;;;;;12.10;99.90;;;;;;5000643;28;20375;-67
2023/10/24 00:18:01;;;;;;;;;;;12.10;99.90;;;;;;5001893;28;19910;-67
2023/10/24 00:20:26;;;;;;;;;;;12.00;99.90;;;;;;5000485;28;19983;-67
2023/10/24 00:22:52;;;;;;;;;;;12.10;99.90;;;;;;5000469;28;19916;-67
2023/10/24 00:25:17;;;;;;;;;;;12.20;99.90;;;;;;5000723;28;20361;-68
2023/10/24 00:27:43;;;;;;;;;;;12.10;99.90;;;;;;5000847;28;19914;-66
2023/10/24 00:30:10;;;;;;;;;;;12.10;99.90;;;;;;5001167;28;19910;-67
2023/10/24 00:32:36;;;;;;;;;;;12.00;99.90;;;;;;5000836;28;20315;-68
2023/10/24 00:35:02;;;;;;;;;;;12.00;99.90;;;;;;5000362;28;19917;-68
2023/10/24 00:37:28;;;;;;;;;;;12.00;99.90;;;;;;5000363;28;19914;-67
2023/10/24 00:39:53;;;;;;;;;;;12.00;99.90;;;;;;5000255;28;19925;-67
2023/10/24 00:42:19;;;;;;;;;;;11.90;99.90;;;;;;5000154;28;19914;-67
2023/10/24 00:44:44;;;;;;;;;;;11.90;99.90;;;;;;5000172;28;20004;-67
2023/10/24 00:47:10;;;;;;;;;;;12.00;99.90;;;;;;5000144;28;20262;-67
2023/10/24 00:49:35;;;;;;;;;;;12.00;99.90;;;;;;4999745;28;20407;-68
2023/10/24 00:52:01;;;;;;;;;;;12.10;99.90;;;;;;4999954;28;20276;-67
2023/10/24 00:54:28;;;;;;;;;;;12.10;99.90;;;;;;5000092;28;19960;-68
2023/10/24 00:56:53;;;;;;;;;;;12.10;99.90;;;;;;4999771;28;19910;-68
2023/10/24 00:59:21;;;;;;;;;;;12.20;99.90;;;;;;4998581;28;19921;-68
2023/10/24 01:01:47;;;;;;;;;;;12.30;99.90;;;;;;4999917;28;19910;-67
2023/10/24 01:04:12;;;;;;;;;;;12.30;99.90;;;;;;4999748;28;19929;-67
2023/10/24 01:06:38;;;;;;;;;;;12.20;99.90;;;;;;4996539;28;20380;-67
2023/10/24 01:09:03;;;;;;;;;;;12.20;99.90;;;;;;4996650;28;19993;-68
2023/10/24 01:11:29;;;;;;;;;;;12.10;99.90;;;;;;4997526;28;20395;-68
2023/10/24 01:13:56;;;;;;;;;;;12.10;99.90;;;;;;4997258;28;19973;-68
2023/10/24 01:16:21;;;;;;;;;;;12.10;99.90;;;;;;4996485;28;19921;-67
2023/10/24 01:18:47;;;;;;;;;;;12.20;99.90;;;;;;4995337;28;19920;-68
2023/10/24 01:21:12;;;;;;;;;;;12.20;99.90;;;;;;4996627;28;19916;-68
2023/10/24 01:23:38;;;;;;;;;;;12.20;99.90;;;;;;4995061;28;19990;-67
2023/10/24 01:26:05;;;;;;;;;;;12.30;99.90;;;;;;4998317;28;19917;-68
2023/10/24 01:28:31;;;;;;;;;;;12.20;99.90;;;;;;4996533;28;19924;-68
2023/10/24 01:30:56;;;;;;;;;;;12.30;99.90;;;;;;4996354;28;19910;-68
2023/10/24 01:33:22;;;;;;;;;;;12.20;99.90;;;;;;4996032;28;19987;-68
2023/10/24 01:35:48;;;;;;;;;;;12.20;99.90;;;;;;4996246;28;20008;-68
2023/10/24 01:38:13;;;;;;;;;;;12.20;99.90;;;;;;4995050;28;19950;-68
2023/10/24 01:40:39;;;;;;;;;;;12.30;99.90;;;;;;4996185;28;20369;-68
2023/10/24 01:43:04;;;;;;;;;;;12.40;99.90;;;;;;4994893;28;19913;-68
2023/10/24 01:45:30;;;;;;;;;;;12.40;99.90;;;;;;4996220;28;20331;-68
2023/10/24 01:47:55;;;;;;;;;;;12.30;99.90;;;;;;4995782;28;19914;-68
2023/10/24 01:50:21;;;;;;;;;;;12.40;99.90;;;;;;4995700;28;19913;-68
2023/10/24 01:52:46;;;;;;;;;;;12.50;99.90;;;;;;4995987;28;20376;-69
2023/10/24 01:55:12;;;;;;;;;;;12.40;99.90;;;;;;4995921;28;19909;-68
2023/10/24 01:57:37;;;;;;;;;;;12.40;99.90;;;;;;4995836;28;19941;-68
2023/10/24 02:00:03;;;;;;;;;;;12.40;99.90;;;;;;4995878;28;20368;-68
2023/10/24 02:02:29;;;;;;;;;;;12.30;99.90;;;;;;4996109;28;19956;-68
2023/10/24 02:04:55;;;;;;;;;;;12.20;99.90;;;;;;4995590;28;20281;-69
2023/10/24 02:07:20;;;;;;;;;;;12.30;99.90;;;;;;4994502;28;20384;-69
2023/10/24 02:09:46;;;;;;;;;;;12.30;99.90;;;;;;4994485;28;19936;-69
2023/10/24 02:12:11;;;;;;;;;;;12.40;99.90;;;;;;4995957;28;19910;-69
2023/10/24 02:14:37;;;;;;;;;;;12.40;99.90;;;;;;4994531;28;19963;-68
2023/10/24 02:17:02;;;;;;;;;;;12.30;99.90;;;;;;4995349;28;20284;-68
2023/10/24 02:19:29;;;;;;;;;;;12.30;99.90;;;;;;4994001;28;19999;-68
2023/10/24 02:21:54;;;;;;;;;;;12.30;99.90;;;;;;4995548;28;19913;-68
2023/10/24 02:24:20;;;;;;;;;;;12.50;99.90;;;;;;4995326;28;19910;-68
2023/10/24 02:26:45;;;;;;;;;;;12.40;99.90;;;;;;4993866;28;19910;-68
2023/10/24 02:29:11;;;;;;;;;;;12.40;99.90;;;;;;4995281;28;19917;-68
2023/10/24 02:31:36;;;;;;;;;;;12.40;99.90;;;;;;4995395;28;19981;-68
2023/10/24 02:34:02;;;;;;;;;;;12.40;99.90;;;;;;4995158;28;19914;-68
2023/10/24 02:36:28;;;;;;;;;;;12.50;99.90;;;;;;4994051;28;19933;-69
2023/10/24 02:38:53;;;;;;;;;;;12.50;99.90;;;;;;4993914;28;20284;-69
2023/10/24 02:41:18;;;;;;;;;;;12.50;99.90;;;;;;4995074;28;19913;-69
2023/10/24 02:43:44;;;;;;;;;;;12.40;99.90;;;;;;4993687;28;19910;-68
2023/10/24 02:46:09;;;;;;;;;;;12.50;99.90;;;;;;4994971;28;20409;-69
2023/10/24 02:48:35;;;;;;;;;;;12.40;99.90;;;;;;4994940;28;19921;-70
2023/10/24 02:51:00;;;;;;;;;;;12.30;99.90;;;;;;4995021;28;20369;-70
2023/10/24 02:53:26;;;;;;;;;;;12.50;99.90;;;;;;4994982;28;19992;-70
2023/10/24 02:55:52;;;;;;;;;;;12.40;99.90;;;;;;4994783;28;20276;-69
2023/10/24 02:58:17;;;;;;;;;;;12.40;99.90;;;;;;4995516;28;19910;-69
2023/10/24 03:00:43;;;;;;;;;;;12.40;99.90;;;;;;4995991;28;19910;-70
2023/10/24 03:03:09;;;;;;;;;;;12.40;99.90;;;;;;4995856;28;20387;-70
2023/10/24 03:05:34;;;;;;;;;;;12.40;99.90;;;;;;4994751;28;19910;-69
2023/10/24 03:08:01;;;;;;;;;;;12.30;99.90;;;;;;4994841;28;19953;-69
2023/10/24 03:10:26;;;;;;;;;;;12.30;99.90;;;;;;4994866;28;19909;-69
2023/10/24 03:12:52;;;;;;;;;;;12.20;99.90;;;;;;4993293;28;19910;-69
2023/10/24 03:15:18;;;;;;;;;;;12.20;99.90;;;;;;4994422;28;19910;-68
2023/10/24 03:17:43;;;;;;;;;;;12.10;99.90;;;;;;4994592;28;19918;-69
2023/10/24 03:20:09;;;;;;;;;;;12.10;99.90;;;;;;4994048;28;19910;-69
2023/10/24 03:22:34;;;;;;;;;;;12.30;99.90;;;;;;4994408;28;19910;-69
2023/10/24 03:25:00;;;;;;;;;;;12.20;99.90;;;;;;4993870;28;19957;-68
2023/10/24 03:27:25;;;;;;;;;;;12.10;99.90;;;;;;4996033;28;19910;-68
2023/10/24 03:29:51;;;;;;;;;;;12.10;99.90;;;;;;4994513;28;19918;-68
2023/10/24 03:32:16;;;;;;;;;;;12.10;99.90;;;;;;4994636;28;20345;-68
2023/10/24 03:34:41;;;;;;;;;;;12.00;99.90;;;;;;4993978;28;19914;-68
2023/10/24 03:37:07;;;;;;;;;;;12.20;99.90;;;;;;4993075;28;19993;-69
2023/10/24 03:39:32;;;;;;;;;;;12.20;99.90;;;;;;4994914;28;19948;-70
2023/10/24 03:41:58;;;;;;;;;;;12.10;99.90;;;;;;4995111;28;19917;-69
2023/10/24 03:44:23;;;;;;;;;;;12.10;99.90;;;;;;4995278;28;19916;-69
2023/10/24 03:46:49;;;;;;;;;;;12.10;99.90;;;;;;4993568;28;19910;-69
2023/10/24 03:49:15;;;;;;;;;;;12.10;99.90;;;;;;4993903;28;19914;-71
2023/10/24 03:51:41;;;;;;;;;;;12.10;99.90;;;;;;4994230;28;19959;-70
2023/10/24 03:54:06;;;;;;;;;;;12.00;99.90;;;;;;4992674;28;19910;-69
2023/10/24 03:56:32;;;;;;;;;;;12.10;99.90;;;;;;4993970;28;19988;-69
2023/10/24 03:58:58;;;;;;;;;;;12.10;99.90;;;;;;4994528;28;20316;-69
2023/10/24 04:01:24;;;;;;;;;;;12.10;99.90;;;;;;4994041;28;19910;-69
2023/10/24 04:03:49;;;;;;;;;;;12.10;99.90;;;;;;4993766;28;19910;-68
2023/10/24 04:06:15;;;;;;;;;;;12.10;99.90;;;;;;4992941;28;19910;-69
2023/10/24 04:08:40;;;;;;;;;;;12.10;99.90;;;;;;4994057;28;19968;-69
2023/10/24 04:11:13;;;;;;;;;;;12.20;99.90;;;;;;4993948;28;20310;-69
2023/10/24 04:13:38;;;;;;;;;;;12.10;99.90;;;;;;4992829;28;20380;-69
2023/10/24 04:16:04;;;;;;;;;;;12.10;99.90;;;;;;4993832;28;19924;-69
2023/10/24 04:18:29;;;;;;;;;;;12.10;99.90;;;;;;4994415;28;19921;-68
2023/10/24 04:20:55;;;;;;;;;;;12.10;99.90;;;;;;4992283;28;20365;-68
2023/10/24 04:23:20;;;;;;;;;;;12.10;99.90;;;;;;4993744;28;20430;-68
2023/10/24 04:25:45;;;;;;;;;;;12.10;99.90;;;;;;4993659;28;19916;-68
2023/10/24 04:28:11;;;;;;;;;;;12.00;99.90;;;;;;4993565;28;19921;-68
2023/10/24 04:30:40;;;;;;;;;;;12.00;99.90;;;;;;4993886;28;20001;-68
2023/10/24 04:33:06;;;;;;;;;;;12.00;99.90;;;;;;4992480;28;19910;-66
2023/10/24 04:35:32;;;;;;;;;;;12.10;99.90;;;;;;4993382;28;19910;-68
2023/10/24 04:37:57;;;;;;;;;;;12.10;99.90;;;;;;4993495;28;19910;-67
2023/10/24 04:40:23;;;;;;;;;;;12.10;99.90;;;;;;4993205;28;19917;-68
2023/10/24 04:42:51;;;;;;;;;;;12.20;99.90;;;;;;4996166;28;19909;-67
2023/10/24 04:45:17;;;;;;;;;;;12.30;99.90;;;;;;4992533;28;19961;-68
2023/10/24 04:47:42;;;;;;;;;;;12.30;99.90;;;;;;4985723;28;20419;-68
2023/10/24 04:50:08;;;;;;;;;;;12.20;99.90;;;;;;4984961;28;20396;-68
2023/10/24 04:52:34;;;;;;;;;;;12.20;99.90;;;;;;4979565;28;20385;-68
2023/10/24 04:54:59;;;;;;;;;;;12.30;99.90;;;;;;4977702;28;20005;-68
2023/10/24 04:57:24;;;;;;;;;;;12.40;99.90;;;;;;4977903;28;19957;-68
2023/10/24 04:59:50;;;;;;;;;;;12.30;99.90;;;;;;4976272;28;19913;-68
2023/10/24 05:02:15;;;;;;;;;;;12.20;99.90;;;;;;4977872;28;20008;-68
2023/10/24 05:04:41;;;;;;;;;;;12.20;99.90;;;;;;4977559;28;19914;-66
2023/10/24 05:07:06;;;;;;;;;;;12.20;99.90;;;;;;4977310;28;19933;-67
2023/10/24 05:09:32;;;;;;;;;;;12.20;99.90;;;;;;4978107;28;19957;-73
2023/10/24 05:11:57;;;;;;;;;;;12.10;99.90;;;;;;4978015;28;20379;-66
2023/10/24 05:14:23;;;;;;;;;;;12.10;99.90;;;;;;4975561;28;19910;-67
2023/10/24 05:16:48;;;;;;;;;;;12.20;99.90;;;;;;4986772;28;19918;-66
2023/10/24 05:19:14;;;;;;;;;;;12.20;99.90;;;;;;4996724;28;19910;-65
2023/10/24 05:21:39;;;;;;;;;;;12.20;99.90;;;;;;4997247;28;19910;-66
2023/10/24 05:24:05;;;;;;;;;;;12.10;99.90;;;;;;5012262;28;19910;-65
2023/10/24 05:26:31;;;;;;;;;;;12.10;99.90;;;;;;4995534;28;19940;-65
2023/10/24 05:28:56;;;;;;;;;;;12.10;99.90;;;;;;4996297;28;19921;-65
2023/10/24 05:31:22;;;;;;;;;;;12.20;99.90;;;;;;4997031;28;19941;-66
2023/10/24 05:33:49;;;;;;;;;;;12.30;99.90;;;;;;4996793;28;19910;-67
2023/10/24 05:36:15;;;;;;;;;;;12.30;99.90;;;;;;4996747;28;20284;-66
2023/10/24 05:38:41;;;;;;;;;;;12.40;99.90;;;;;;4997064;28;20012;-66
2023/10/24 05:41:06;;;;;;;;;;;12.40;99.90;;;;;;4996590;28;19952;-67
2023/10/24 05:43:32;;;;;;;;;;;12.30;99.90;;;;;;4996831;28;20261;-66
2023/10/24 05:45:57;;;;;;;;;;;12.30;99.90;;;;;;4991121;28;20012;-66
2023/10/24 05:48:23;;;;;;;;;;;12.20;99.90;;;;;;4976505;28;19914;-66
2023/10/24 05:50:49;;;;;;;;;;;12.10;99.90;;;;;;4976248;28;19910;-66
2023/10/24 05:53:14;;;;;;;;;;;12.10;99.90;;;;;;4976118;28;19957;-66
2023/10/24 05:55:40;;;;;;;;;;;12.10;99.90;;;;;;4976669;28;19957;-67
2023/10/24 05:58:05;;;;;;;;;;;12.00;99.90;;;;;;4976256;28;19972;-66
2023/10/24 06:00:31;;;;;;;;;;;12.00;99.90;;;;;;4976474;28;19930;-66
2023/10/24 06:02:56;;;;;;;;;;;12.00;99.90;;;;;;4976572;28;19910;-67
2023/10/24 06:05:22;;;;;;;;;;;12.10;99.90;;;;;;4975151;28;19946;-66
2023/10/24 06:07:47;;;;;;;;;;;12.10;99.90;;;;;;4976374;28;19917;-66
2023/10/24 06:10:12;;;;;;;;;;;12.20;99.90;;;;;;4976649;28;19961;-66
2023/10/24 06:12:38;;;;;;;;;;;12.20;99.90;;;;;;4976721;28;19917;-66
2023/10/24 06:15:04;;;;;;;;;;;12.10;99.90;;;;;;4976222;28;19918;-66
2023/10/24 06:17:30;;;;;;;;;;;12.10;99.90;;;;;;4980226;28;20025;-66
2023/10/24 06:19:55;;;;;;;;;;;12.20;99.90;;;;;;4987393;28;20040;-66
2023/10/24 06:22:21;;;;;;;;;;;12.10;99.90;;;;;;4985649;28;20056;-66
2023/10/24 06:24:46;;;;;;;;;;;12.10;99.90;;;;;;4986008;28;19910;-66
2023/10/24 06:27:13;;;;;;;;;;;12.10;99.90;;;;;;4975843;28;19941;-65
2023/10/24 06:29:39;;;;;;;;;;;12.10;99.90;;;;;;4975666;28;19937;-65
2023/10/24 06:32:05;;;;;;;;;;;12.10;99.90;;;;;;4976985;28;20373;-65
2023/10/24 06:34:30;;;;;;;;;;;12.00;99.90;;;;;;4977823;28;20444;-66
2023/10/24 06:36:56;;;;;;;;;;;12.00;99.90;;;;;;4977012;28;19956;-64
2023/10/24 06:39:21;;;;;;;;;;;12.00;99.90;;;;;;4975804;28;20043;-65
2023/10/24 06:41:47;;;;;;;;;;;12.00;99.90;;;;;;4975668;28;19910;-64
2023/10/24 06:44:12;;;;;;;;;;;12.00;99.90;;;;;;4975646;28;19950;-64
2023/10/24 06:46:38;;;;;;;;;;;12.00;99.90;;;;;;4986250;28;20399;-64
2023/10/24 06:49:03;;;;;;;;;;;12.10;99.90;;;;;;4994774;28;19914;-64
2023/10/24 06:51:29;;;;;;;;;;;12.00;99.90;;;;;;4994254;28;20303;-65
2023/10/24 06:53:54;;;;;;;;;;;12.10;99.90;;;;;;4981822;28;19921;-65
2023/10/24 06:56:20;;;;;;;;;;;12.10;99.90;;;;;;4989093;28;19916;-64
2023/10/24 06:58:45;;;;;;;;;;;12.10;99.90;;;;;;4994919;28;19979;-63
2023/10/24 07:01:10;;;;;;;;;;;12.10;99.90;;;;;;4994546;28;19914;-63
2023/10/24 07:03:36;;;;;;;;;;;12.10;99.90;;;;;;4992714;28;19936;-64
2023/10/24 07:06:01;;;;;;;;;;;12.20;99.90;;;;;;4993831;28;20012;-64
2023/10/24 07:08:27;;;;;;;;;;;12.10;99.90;;;;;;4994938;28;19996;-65
2023/10/24 07:10:52;;;;;;;;;;;12.10;99.90;;;;;;4994609;28;19917;-65
2023/10/24 07:13:18;;;;;;;;;;;12.10;99.90;;;;;;4995414;28;19992;-68
2023/10/24 07:15:44;;;;;;;;;;;12.10;99.90;;;;;;4993287;28;19914;-65
2023/10/24 07:18:10;;;;;;;;;;;12.20;99.90;;;;;;4994543;28;19922;-66
2023/10/24 07:20:36;;;;;;;;;;;12.20;99.90;;;;;;4994332;28;19945;-66
2023/10/24 07:23:02;;;;;;;;;;;12.30;99.90;;;;;;4994297;28;19932;-65
2023/10/24 07:25:27;;;;;;;;;;;12.20;99.90;;;;;;4994350;28;19955;-65
2023/10/24 07:27:52;;;;;;;;;;;12.30;99.90;;;;;;4994176;28;20435;-66
2023/10/24 07:30:18;;;;;;;;;;;12.30;99.90;;;;;;4994261;28;19910;-66
2023/10/24 07:32:43;;;;;;;;;;;12.20;99.90;;;;;;4994887;28;19910;-66
2023/10/24 07:35:09;;;;;;;;;;;12.30;99.90;;;;;;4994267;28;19964;-67
2023/10/24 07:37:36;;;;;;;;;;;12.30;99.90;;;;;;4994365;28;20023;-65
2023/10/24 07:40:04;;;;;;;;;;;12.30;99.90;;;;;;4993913;28;19956;-68
2023/10/24 07:42:30;;;;;;;;;;;12.40;99.90;;;;;;4994486;28;20283;-67
2023/10/24 07:44:56;;;;;;;;;;;12.40;99.90;;;;;;4994404;28;19992;-68
2023/10/24 07:47:21;;;;;;;;;;;12.40;99.90;;;;;;4994291;28;20383;-68
2023/10/24 07:49:47;;;;;;;;;;;12.40;99.90;;;;;;4992177;28;19941;-68
2023/10/24 07:52:12;;;;;;;;;;;12.40;99.90;;;;;;4993739;28;19909;-67
2023/10/24 07:54:38;;;;;;;;;;;12.40;99.90;;;;;;4994837;28;19929;-65
2023/10/24 07:57:04;;;;;;;;;;;12.40;99.90;;;;;;4994985;28;19996;-65
2023/10/24 07:59:30;;;;;;;;;;;12.40;99.90;;;;;;4994215;28;20332;-65
2023/10/24 08:01:55;;;;;;;;;;;12.40;99.90;;;;;;4994156;28;19910;-65
2023/10/24 08:04:21;;;;;;;;;;;12.40;99.90;;;;;;4992591;28;19921;-67
2023/10/24 08:06:46;;;;;;;;;;;12.50;99.90;;;;;;4994752;28;19910;-68
2023/10/24 08:09:12;;;;;;;;;;;12.50;99.90;;;;;;4993922;28;19918;-67
2023/10/24 08:11:37;;;;;;;;;;;12.50;99.90;;;;;;4994003;28;20300;-68
2023/10/24 08:14:02;;;;;;;;;;;12.50;99.90;;;;;;4994692;28;19910;-68
2023/10/24 08:16:28;;;;;;;;;;;12.50;99.90;;;;;;4996313;28;19922;-68
2023/10/24 08:18:53;;;;;;;;;;;12.50;99.90;;;;;;4997986;28;20354;-68
2023/10/24 08:21:19;;;;;;;;;;;12.50;99.90;;;;;;4998098;28;19920;-67
2023/10/24 08:23:44;;;;;;;;;;;12.50;99.90;;;;;;4998213;28;19910;-67
2023/10/24 08:26:10;;;;;;;;;;;12.60;99.90;;;;;;4997543;28;19956;-66
2023/10/24 08:28:35;;;;;;;;;;;12.60;99.90;;;;;;4996538;28;19941;-67
2023/10/24 08:31:01;;;;;;;;;;;12.60;99.90;;;;;;4997884;28;19926;-66
2023/10/24 08:33:28;;;;;;;;;;;12.70;99.90;;;;;;4997882;28;19989;-66
2023/10/24 08:35:53;;;;;;;;;;;12.70;99.90;;;;;;4997132;28;20009;-66
2023/10/24 08:38:19;;;;;;;;;;;12.70;99.90;;;;;;4997597;28;19965;-65
2023/10/24 08:40:45;;;;;;;;;;;12.70;99.90;;;;;;4997548;28;19910;-66
2023/10/24 08:43:11;;;;;;;;;;;12.70;99.90;;;;;;4997985;28;19910;-66
2023/10/24 08:45:36;;;;;;;;;;;12.60;99.90;;;;;;4997294;28;20238;-65
2023/10/24 08:48:04;;;;;;;;;;;12.70;99.90;;;;;;4996093;28;20063;-65
2023/10/24 08:50:29;;;;;;;;;;;12.70;99.90;;;;;;4997116;28;19910;-66
2023/10/24 08:52:55;;;;;;;;;;;12.70;99.90;;;;;;4997453;28;20323;-66
2023/10/24 08:55:20;;;;;;;;;;;12.80;99.90;;;;;;4997296;28;20037;-66
2023/10/24 08:57:46;;;;;;;;;;;12.80;99.90;;;;;;4997527;28;20290;-66
2023/10/24 09:00:14;;;;;;;;;;;12.70;99.90;;;;;;4998881;28;19918;-66
2023/10/24 09:02:45;;;;;;;;;;;12.60;99.90;;;;;;4999553;28;19916;-66
2023/10/24 09:05:14;;;;;;;;;;;12.70;99.90;;;;;;4997002;28;19914;-66
2023/10/24 09:07:40;;;;;;;;;;;12.70;99.90;;;;;;4997284;28;20284;-65
2023/10/24 09:10:06;;;;;;;;;;;12.60;99.90;;;;;;4997060;28;19921;-66
2023/10/24 09:12:32;;;;;;;;;;;12.60;99.90;;;;;;4997218;28;19945;-67
2023/10/24 09:14:58;;;;;;;;;;;12.60;99.90;;;;;;4997140;28;20408;-66
2023/10/24 09:17:24;;;;;;;;;;;12.60;99.90;;;;;;4996797;28;20241;-66
2023/10/24 09:19:49;;;;;;;;;;;12.70;99.90;;;;;;4996766;28;19917;-66
2023/10/24 09:22:16;;;;;;;;;;;12.70;99.90;;;;;;4996832;28;19917;-66
2023/10/24 09:24:45;;;;;;;;;;;12.70;99.90;;;;;;4997096;28;19921;-66
2023/10/24 09:27:12;;;;;;;;;;;12.70;99.90;;;;;;4995635;28;19910;-67
2023/10/24 09:29:38;;;;;;;;;;;12.70;99.90;;;;;;4996798;28;19914;-67
2023/10/24 09:32:05;;;;;;;;;;;12.70;99.90;;;;;;4996646;28;19917;-67
2023/10/24 09:34:32;;;;;;;;;;;12.60;99.90;;;;;;4997017;28;19996;-67
2023/10/24 09:37:07;;;;;;;;;;;12.70;99.90;;;;;;4996499;28;19917;-66
2023/10/24 09:39:32;;;;;;;;;;;12.70;99.90;;;;;;4996458;28;20250;-67
2023/10/24 09:41:58;;;;;;;;;;;12.70;99.90;;;;;;4997960;28;19937;-65
2023/10/24 09:44:24;;;;;;;;;;;12.70;99.90;;;;;;4997402;28;20368;-65
2023/10/24 09:46:50;;;;;;;;;;;12.70;99.90;;;;;;4996857;28;19916;-65
2023/10/24 09:49:16;;;;;;;;;;;12.70;99.90;;;;;;4996347;28;19914;-65
2023/10/24 09:51:42;;;;;;;;;;;12.70;99.90;;;;;;4996211;28;19921;-67
2023/10/24 09:54:07;;;;;;;;;;;12.70;99.90;;;;;;4996205;28;19910;-65
2023/10/24 09:56:33;;;;;;;;;;;12.80;99.90;;;;;;4996042;28;19909;-65
2023/10/24 09:58:59;;;;;;;;;;;12.80;99.90;;;;;;4996284;28;20282;-66
2023/10/24 10:01:26;;;;;;;;;;;12.80;99.90;;;;;;4996164;28;19961;-65
2023/10/24 10:03:53;;;;;;;;;;;12.80;99.90;;;;;;4996117;28;19918;-65
2023/10/24 10:06:19;;;;;;;;;;;12.80;99.90;;;;;;4995911;28;20258;-66
2023/10/24 10:08:44;;;;;;;;;;;12.80;99.90;;;;;;4995987;28;19921;-66
2023/10/24 10:11:10;;;;;;;;;;;12.80;99.90;;;;;;4996272;28;19910;-69
2023/10/24 10:13:38;;;;;;;;;;;12.80;99.90;;;;;;4995903;28;20327;-69
2023/10/24 10:16:09;;;;;;;;;;;12.80;99.90;;;;;;4989606;28;20004;-69
2023/10/24 10:18:35;;;;;;;;;;;12.80;99.90;;;;;;4977482;28;19914;-71
2023/10/24 10:21:20;;;;;;;;;;;12.90;99.90;;;;;;4976603;28;19914;-71
2023/10/24 10:24:04;;;;;;;;;;;12.90;99.90;;;;;;4976501;28;19917;-72
2023/10/24 10:26:36;;;;;;;;;;;12.90;99.90;;;;;;4976600;28;19910;-74
2023/10/24 10:29:20;;;;;;;;;;;12.80;99.90;;;;;;4976465;28;19917;-75
2023/10/24 10:31:51;;;;;;;;;;;12.90;99.90;;;;;;4976458;28;19917;-75
2023/10/24 10:34:16;;;;;;;;;;;12.90;99.90;;;;;;4975091;28;19911;-70
2023/10/24 10:36:54;;;;;;;;;;;12.80;99.90;;;;;;4975884;28;19916;-72
2023/10/24 10:39:20;;;;;;;;;;;12.90;99.90;;;;;;4976115;28;19921;-72
2023/10/24 10:41:45;;;;;;;;;;;12.90;99.90;;;;;;4974810;28;19910;-72
2023/10/24 10:44:29;;;;;;;;;;;13.00;99.90;;;;;;4974685;28;19961;-73
2023/10/24 10:46:58;;;;;;;;;;;13.00;99.90;;;;;;4989001;28;19925;-73
2023/10/24 10:49:25;;;;;;;;;;;13.00;99.90;;;;;;4994391;28;19936;-69
2023/10/24 10:51:51;;;;;;;;;;;13.00;99.90;;;;;;4993495;28;19914;-67
2023/10/24 10:54:23;;;;;;;;;;;13.00;99.90;;;;;;4995279;28;20274;-65
2023/10/24 10:56:49;;;;;;;;;;;13.00;99.90;;;;;;4995021;28;20013;-68
2023/10/24 10:59:28;;;;;;;;;;;13.00;99.90;;;;;;4995551;28;20009;-66
2023/10/24 11:01:59;;;;;;;;;;;13.00;99.90;;;;;;4991555;28;19910;-66
2023/10/24 11:04:25;;;;;;;;;;;13.10;99.90;;;;;;4980944;28;19918;-66
2023/10/24 11:06:51;;;;;;;;;;;13.10;99.90;;;;;;4974899;28;19922;-66
2023/10/24 11:09:18;;;;;;;;;;;13.10;99.90;;;;;;4975341;28;20013;-66
2023/10/24 11:11:44;;;;;;;;;;;13.10;99.90;;;;;;4975254;28;20365;-67
2023/10/24 11:14:19;;;;;;;;;;;13.10;99.90;;;;;;4975860;28;19917;-66
2023/10/24 11:16:46;;;;;;;;;;;13.20;99.90;;;;;;4984704;28;19961;-66
2023/10/24 11:19:18;;;;;;;;;;;13.20;99.90;;;;;;4975306;28;19918;-67
2023/10/24 11:21:45;;;;;;;;;;;13.20;99.90;;;;;;4975214;28;19914;-67
2023/10/24 11:24:14;;;;;;;;;;;13.20;99.90;;;;;;4975467;28;20356;-67
2023/10/24 11:26:40;;;;;;;;;;;13.20;99.90;;;;;;4974949;28;19910;-67
2023/10/24 11:29:05;;;;;;;;;;;13.20;99.90;;;;;;4974799;28;19921;-66
2023/10/24 11:31:31;;;;;;;;;;;13.30;99.90;;;;;;4975184;28;20344;-67
2023/10/24 11:33:57;;;;;;;;;;;13.20;99.90;;;;;;4975042;28;20365;-67
2023/10/24 11:36:24;;;;;;;;;;;13.30;99.90;;;;;;4974909;28;19917;-67
2023/10/24 11:38:51;;;;;;;;;;;13.30;99.90;;;;;;4974947;28;19917;-68
2023/10/24 11:41:16;;;;;;;;;;;13.40;99.90;;;;;;4975043;28;19910;-68
2023/10/24 11:43:43;;;;;;;;;;;13.40;99.90;;;;;;4975113;28;20437;-68
2023/10/24 11:46:08;;;;;;;;;;;13.40;99.90;;;;;;4981564;28;19949;-68
2023/10/24 11:48:35;;;;;;;;;;;13.40;99.90;;;;;;4994644;28;19975;-72
2023/10/24 11:51:03;;;;;;;;;;;13.50;99.90;;;;;;4993680;28;20005;-69
2023/10/24 11:53:28;;;;;;;;;;;13.50;99.90;;;;;;4994651;28;19949;-70
2023/10/24 11:55:55;;;;;;;;;;;13.60;99.90;;;;;;4994012;28;19910;-70
2023/10/24 11:58:20;;;;;;;;;;;13.60;99.90;;;;;;4994279;28;19910;-70
2023/10/24 12:00:46;;;;;;;;;;;13.60;99.90;;;;;;4992797;28;19910;-70
2023/10/24 12:03:11;;;;;;;;;;;13.70;99.90;;;;;;4994374;28;19968;-72
2023/10/24 12:05:38;;;;;;;;;;;13.70;99.90;;;;;;4994476;28;19917;-70
2023/10/24 12:08:04;;;;;;;;;;;13.80;99.90;;;;;;4995559;28;20435;-71
2023/10/24 12:10:30;;;;;;;;;;;13.80;99.90;;;;;;4994751;28;19933;-67
2023/10/24 12:12:57;;;;;;;;;;;13.80;99.90;;;;;;4993895;28;19910;-68
2023/10/24 12:15:23;;;;;;;;;;;13.80;99.90;;;;;;4994318;28;19953;-69
2023/10/24 12:17:50;;;;;;;;;;;13.90;99.90;;;;;;4994307;28;19910;-67
2023/10/24 12:20:16;;;;;;;;;;;13.90;99.90;;;;;;4994223;28;19966;-69
2023/10/24 12:22:46;;;;;;;;;;;13.90;99.90;;;;;;4995933;28;19913;-72
2023/10/24 12:25:12;;;;;;;;;;;13.90;99.90;;;;;;4995167;28;19913;-70
2023/10/24 12:27:38;;;;;;;;;;;13.90;99.90;;;;;;4994603;28;19944;-70
2023/10/24 12:30:03;;;;;;;;;;;13.90;99.90;;;;;;4994306;28;20391;-68
2023/10/24 12:32:29;;;;;;;;;;;13.90;99.90;;;;;;4993235;28;19917;-70
2023/10/24 12:34:55;;;;;;;;;;;13.90;99.90;;;;;;4994657;28;20276;-70
2023/10/24 12:37:20;;;;;;;;;;;14.00;99.90;;;;;;4993707;28;20051;-70
2023/10/24 12:39:46;;;;;;;;;;;14.00;99.90;;;;;;4993939;28;19910;-67
2023/10/24 12:42:11;;;;;;;;;;;14.10;99.90;;;;;;4994092;28;19914;-66
2023/10/24 12:44:37;;;;;;;;;;;14.20;99.90;;;;;;4994658;28;19910;-66
2023/10/24 12:47:02;;;;;;;;;;;14.20;99.90;;;;;;4995407;28;19932;-65
2023/10/24 12:49:28;;;;;;;;;;;14.40;99.90;;;;;;4994665;28;19918;-67
2023/10/24 12:51:53;;;;;;;;;;;14.40;99.90;;;;;;4993715;28;19913;-70
2023/10/24 12:54:19;;;;;;;;;;;14.40;99.90;;;;;;4993811;28;19996;-69
2023/10/24 12:56:44;;;;;;;;;;;14.50;99.90;;;;;;4993670;28;20372;-69
2023/10/24 12:59:10;;;;;;;;;;;14.50;99.90;;;;;;4993897;28;20292;-69
2023/10/24 13:01:35;;;;;;;;;;;14.60;99.90;;;;;;4994883;28;20288;-70
2023/10/24 13:04:01;;;;;;;;;;;14.60;99.90;;;;;;4997736;28;19918;-67
2023/10/24 13:06:26;;;;;;;;;;;14.50;99.90;;;;;;4997515;28;19910;-66
2023/10/24 13:08:51;;;;;;;;;;;14.60;99.90;;;;;;4997145;28;19918;-67
2023/10/24 13:11:17;;;;;;;;;;;14.60;99.90;;;;;;4997347;28;19937;-65
2023/10/24 13:13:42;;;;;;;;;;;14.70;99.90;;;;;;4997072;28;20327;-66
2023/10/24 13:16:08;;;;;;;;;;;14.70;99.90;;;;;;4996569;28;19925;-67
2023/10/24 13:18:33;;;;;;;;;;;14.70;99.90;;;;;;4997101;28;19921;-67
2023/10/24 13:20:59;;;;;;;;;;;14.70;99.90;;;;;;4996541;28;19914;-65
2023/10/24 13:23:24;;;;;;;;;;;14.70;99.90;;;;;;4996775;28;19957;-68
2023/10/24 13:25:51;;;;;;;;;;;14.70;99.90;;;;;;4995970;28;20198;-70
2023/10/24 13:28:17;;;;;;;;;;;14.70;99.90;;;;;;4996708;28;19914;-68
2023/10/24 13:30:44;;;;;;;;;;;14.70;99.90;;;;;;4996772;28;19913;-68
2023/10/24 13:33:10;;;;;;;;;;;14.80;99.90;;;;;;4996701;28;19913;-68
2023/10/24 13:35:35;;;;;;;;;;;14.90;99.90;;;;;;4996284;28;19979;-68
2023/10/24 13:38:01;;;;;;;;;;;15.00;99.90;;;;;;4996711;28;19913;-68
2023/10/24 13:40:26;;;;;;;;;;;15.10;99.90;;;;;;4996725;28;19910;-67
2023/10/24 13:42:51;;;;;;;;;;;15.20;99.90;;;;;;4996518;28;19971;-69
2023/10/24 13:45:17;;;;;;;;;;;15.30;99.90;;;;;;4996370;28;19949;-67
2023/10/24 13:47:42;;;;;;;;;;;15.40;99.90;;;;;;4996542;28;19910;-68
2023/10/24 13:50:08;;;;;;;;;;;15.40;99.90;;;;;;4996367;28;19921;-68
2023/10/24 13:52:34;;;;;;;;;;;15.30;99.90;;;;;;4996741;28;19917;-67
2023/10/24 13:54:59;;;;;;;;;;;15.20;99.90;;;;;;4997253;28;19961;-67
2023/10/24 13:57:24;;;;;;;;;;;15.20;99.90;;;;;;4996793;28;19917;-67
2023/10/24 13:59:50;;;;;;;;;;;15.20;99.90;;;;;;4996322;28;20381;-67
2023/10/24 14:02:15;;;;;;;;;;;15.20;99.90;;;;;;4995447;28;19916;-66
2023/10/24 14:04:41;;;;;;;;;;;15.20;99.90;;;;;;4995892;28;20009;-67
2023/10/24 14:07:08;;;;;;;;;;;15.10;99.90;;;;;;4995726;28;19917;-67
2023/10/24 14:09:34;;;;;;;;;;;15.10;99.90;;;;;;4996380;28;19946;-67